sensor_id;sensor_type;location;lat;lon;timestamp;temperature;humidity
29201;DHT22;16244;51.956;12.980;2022-08-26T00:00:30;20.90;99.90
29201;DHT22;16244;51.956;12.980;2022-08-26T00:02:58;20.90;99.90
29201;DHT22;16244;51.956;12.980;2022-08-26T00:05:25;20.90;99.90
29201;DHT22;16244;51.956;12.980;2022-08-26T00:07:53;20.90;99.90
29201;DHT22;16244;51.956;12.980;2022-08-26T00:10:20;20.90;99.90
29201;DHT22;16244;51.956;12.980;2022-08-26T00:12:47;20.90;99.90
29201;DHT22;16244;51.956;12.980;2022-08-26T00:15:18;20.90;99.90
29201;DHT22;16244;51.956;12.980;2022-08-26T00:17:46;20.90;99.90
29201;DHT22;16244;51.956;12.980;2022-08-26T00:20:16;20.80;99.90
29201;DHT22;16244;51.956;12.980;2022-08-26T00:22:44;20.80;99.90
29201;DHT22;16244;51.956;12.980;2022-08-26T00:25:12;20.80;99.90
29201;DHT22;16244;51.956;12.980;2022-08-26T00:27:40;20.70;99.90
29201;DHT22;16244;51.956;12.980;2022-08-26T00:30:12;20.70;99.90
29201;DHT22;16244;51.956;12.980;2022-08-26T00:32:40;20.70;99.90
29201;DHT22;16244;51.956;12.980;2022-08-26T00:35:08;20.60;99.90
29201;DHT22;16244;51.956;12.980;2022-08-26T00:37:38;20.60;99.90
29201;DHT22;16244;51.956;12.980;2022-08-26T00:40:07;20.50;99.90
29201;DHT22;16244;51.956;12.980;2022-08-26T00:42:34;20.40;99.90
29201;DHT22;16244;51.956;12.980;2022-08-26T00:45:02;20.30;99.90
29201;DHT22;16244;51.956;12.980;2022-08-26T00:47:31;20.30;99.90
29201;DHT22;16244;51.956;12.980;2022-08-26T00:50:05;20.20;99.90
29201;DHT22;16244;51.956;12.980;2022-08-26T00:52:33;20.20;99.90
29201;DHT22;16244;51.956;12.980;2022-08-26T00:55:03;20.30;99.90
29201;DHT22;16244;51.956;12.980;2022-08-26T00:57:33;20.40;99.90
29201;DHT22;16244;51.956;12.980;2022-08-26T01:00:06;20.40;99.90
29201;DHT22;16244;51.956;12.980;2022-08-26T01:02:34;20.40;99.90
29201;DHT22;16244;51.956;12.980;2022-08-26T01:05:04;20.40;99.90
29201;DHT22;16244;51.956;12.980;2022-08-26T01:07:33;20.30;99.90
29201;DHT22;16244;51.956;12.980;2022-08-26T01:10:04;20.20;99.90
29201;DHT22;16244;51.956;12.980;2022-08-26T01:12:34;20.20;99.90
29201;DHT22;16244;51.956;12.980;2022-08-26T01:15:05;20.30;99.90
29201;DHT22;16244;51.956;12.980;2022-08-26T01:17:32;20.30;99.90
29201;DHT22;16244;51.956;12.980;2022-08-26T01:20:05;20.40;99.90
29201;DHT22;16244;51.956;12.980;2022-08-26T01:22:45;20.50;99.90
29201;DHT22;16244;51.956;12.980;2022-08-26T01:25:16;20.60;99.90
29201;DHT22;16244;51.956;12.980;2022-08-26T01:27:45;20.70;99.90
29201;DHT22;16244;51.956;12.980;2022-08-26T01:30:13;20.70;99.90
29201;DHT22;16244;51.956;12.980;2022-08-26T01:32:41;20.80;99.90
29201;DHT22;16244;51.956;12.980;2022-08-26T01:35:09;20.80;99.90
29201;DHT22;16244;51.956;12.980;2022-08-26T01:37:38;20.80;99.90
29201;DHT22;16244;51.956;12.980;2022-08-26T01:40:11;20.70;99.90
29201;DHT22;16244;51.956;12.980;2022-08-26T01:42:40;20.60;99.90
29201;DHT22;16244;51.956;12.980;2022-08-26T01:45:11;20.60;99.90
29201;DHT22;16244;51.956;12.980;2022-08-26T01:47:40;20.50;99.90
29201;DHT22;16244;51.956;12.980;2022-08-26T01:50:11;20.50;99.90
29201;DHT22;16244;51.956;12.980;2022-08-26T01:52:42;20.50;99.90
29201;DHT22;16244;51.956;12.980;2022-08-26T01:55:13;20.50;99.90
29201;DHT22;16244;51.956;12.980;2022-08-26T01:57:41;20.50;99.90
29201;DHT22;16244;51.956;12.980;2022-08-26T02:00:10;20.40;99.90
29201;DHT22;16244;51.956;12.980;2022-08-26T02:02:40;20.40;99.90
29201;DHT22;16244;51.956;12.980;2022-08-26T02:05:09;20.30;99.90
29201;DHT22;16244;51.956;12.980;2022-08-26T02:07:40;20.30;99.90
29201;DHT22;16244;51.956;12.980;2022-08-26T02:10:08;20.30;99.90
29201;DHT22;16244;51.956;12.980;2022-08-26T02:12:38;20.20;99.90
29201;DHT22;16244;51.956;12.980;2022-08-26T02:15:08;20.20;99.90
29201;DHT22;16244;51.956;12.980;2022-08-26T02:17:41;20.20;99.90
29201;DHT22;16244;51.956;12.980;2022-08-26T02:20:10;20.10;99.90
29201;DHT22;16244;51.956;12.980;2022-08-26T02:22:39;20.00;99.90
29201;DHT22;16244;51.956;12.980;2022-08-26T02:25:10;19.90;99.90
29201;DHT22;16244;51.956;12.980;2022-08-26T02:27:40;19.80;99.90
29201;DHT22;16244;51.956;12.980;2022-08-26T02:30:11;19.70;99.90
29201;DHT22;16244;51.956;12.980;2022-08-26T02:32:39;19.70;99.90
29201;DHT22;16244;51.956;12.980;2022-08-26T02:35:07;19.60;99.90
29201;DHT22;16244;51.956;12.980;2022-08-26T02:37:35;19.60;99.90
29201;DHT22;16244;51.956;12.980;2022-08-26T02:40:04;19.60;99.90
29201;DHT22;16244;51.956;12.980;2022-08-26T02:42:31;19.60;99.90
29201;DHT22;16244;51.956;12.980;2022-08-26T02:45:00;19.60;99.90
29201;DHT22;16244;51.956;12.980;2022-08-26T02:47:27;19.70;99.90
29201;DHT22;16244;51.956;12.980;2022-08-26T02:49:54;19.80;99.90
29201;DHT22;16244;51.956;12.980;2022-08-26T02:52:21;19.80;99.90
29201;DHT22;16244;51.956;12.980;2022-08-26T02:54:48;19.80;99.90
29201;DHT22;16244;51.956;12.980;2022-08-26T02:57:15;19.80;99.90
29201;DHT22;16244;51.956;12.980;2022-08-26T02:59:43;19.80;99.90
29201;DHT22;16244;51.956;12.980;2022-08-26T03:02:11;19.70;99.90
29201;DHT22;16244;51.956;12.980;2022-08-26T03:04:39;19.60;99.90
29201;DHT22;16244;51.956;12.980;2022-08-26T03:07:06;19.60;99.90
29201;DHT22;16244;51.956;12.980;2022-08-26T03:09:33;19.60;99.90
29201;DHT22;16244;51.956;12.980;2022-08-26T03:12:00;19.60;99.90
29201;DHT22;16244;51.956;12.980;2022-08-26T03:14:28;19.60;99.90
29201;DHT22;16244;51.956;12.980;2022-08-26T03:16:55;19.60;99.90
29201;DHT22;16244;51.956;12.980;2022-08-26T03:19:24;19.60;99.90
29201;DHT22;16244;51.956;12.980;2022-08-26T03:21:52;19.60;99.90
29201;DHT22;16244;51.956;12.980;2022-08-26T03:24:20;19.60;99.90
29201;DHT22;16244;51.956;12.980;2022-08-26T03:26:47;19.50;99.90
29201;DHT22;16244;51.956;12.980;2022-08-26T03:29:14;19.40;99.90
29201;DHT22;16244;51.956;12.980;2022-08-26T03:32:01;19.40;99.90
29201;DHT22;16244;51.956;12.980;2022-08-26T03:34:30;19.30;99.90
29201;DHT22;16244;51.956;12.980;2022-08-26T03:36:57;19.30;99.90
29201;DHT22;16244;51.956;12.980;2022-08-26T03:39:24;19.30;99.90
29201;DHT22;16244;51.956;12.980;2022-08-26T03:41:51;19.20;99.90
29201;DHT22;16244;51.956;12.980;2022-08-26T03:44:20;19.20;99.90
29201;DHT22;16244;51.956;12.980;2022-08-26T03:46:47;19.20;99.90
29201;DHT22;16244;51.956;12.980;2022-08-26T03:49:14;19.20;99.90
29201;DHT22;16244;51.956;12.980;2022-08-26T03:51:43;19.20;99.90
29201;DHT22;16244;51.956;12.980;2022-08-26T03:54:10;19.30;99.90
29201;DHT22;16244;51.956;12.980;2022-08-26T03:56:37;19.30;99.90
29201;DHT22;16244;51.956;12.980;2022-08-26T03:59:04;19.40;99.90
29201;DHT22;16244;51.956;12.980;2022-08-26T04:01:32;19.40;99.90
29201;DHT22;16244;51.956;12.980;2022-08-26T04:03:59;19.30;99.90
29201;DHT22;16244;51.956;12.980;2022-08-26T04:06:29;19.30;99.90
29201;DHT22;16244;51.956;12.980;2022-08-26T04:09:00;19.20;99.90
29201;DHT22;16244;51.956;12.980;2022-08-26T04:11:30;19.20;99.90
29201;DHT22;16244;51.956;12.980;2022-08-26T04:13:58;19.10;99.90
29201;DHT22;16244;51.956;12.980;2022-08-26T04:16:27;19.00;99.90
29201;DHT22;16244;51.956;12.980;2022-08-26T04:18:55;18.90;99.90
29201;DHT22;16244;51.956;12.980;2022-08-26T04:21:23;18.90;99.90
29201;DHT22;16244;51.956;12.980;2022-08-26T04:23:51;18.80;99.90
29201;DHT22;16244;51.956;12.980;2022-08-26T04:26:21;18.70;99.90
29201;DHT22;16244;51.956;12.980;2022-08-26T04:28:50;18.70;99.90
29201;DHT22;16244;51.956;12.980;2022-08-26T04:31:18;18.70;99.90
29201;DHT22;16244;51.956;12.980;2022-08-26T04:33:47;18.70;99.90
29201;DHT22;16244;51.956;12.980;2022-08-26T04:36:14;18.80;99.90
29201;DHT22;16244;51.956;12.980;2022-08-26T04:38:42;18.80;99.90
29201;DHT22;16244;51.956;12.980;2022-08-26T04:41:10;18.90;99.90
29201;DHT22;16244;51.956;12.980;2022-08-26T04:43:39;18.80;99.90
29201;DHT22;16244;51.956;12.980;2022-08-26T04:46:07;18.70;99.90
29201;DHT22;16244;51.956;12.980;2022-08-26T04:48:34;18.70;99.90
29201;DHT22;16244;51.956;12.980;2022-08-26T04:51:01;18.70;99.90
29201;DHT22;16244;51.956;12.980;2022-08-26T04:53:29;18.70;99.90
29201;DHT22;16244;51.956;12.980;2022-08-26T04:55:56;18.80;99.90
29201;DHT22;16244;51.956;12.980;2022-08-26T04:58:24;18.80;99.90
29201;DHT22;16244;51.956;12.980;2022-08-26T05:00:54;18.80;99.90
29201;DHT22;16244;51.956;12.980;2022-08-26T05:03:23;18.90;99.90
29201;DHT22;16244;51.956;12.980;2022-08-26T05:05:53;18.90;99.90
29201;DHT22;16244;51.956;12.980;2022-08-26T05:08:21;18.90;99.90
29201;DHT22;16244;51.956;12.980;2022-08-26T05:10:51;18.90;99.90
29201;DHT22;16244;51.956;12.980;2022-08-26T05:13:23;19.00;99.90
29201;DHT22;16244;51.956;12.980;2022-08-26T05:15:52;19.10;99.90
29201;DHT22;16244;51.956;12.980;2022-08-26T05:18:21;19.20;99.90
29201;DHT22;16244;51.956;12.980;2022-08-26T05:20:51;19.30;99.90
29201;DHT22;16244;51.956;12.980;2022-08-26T05:23:19;19.40;99.90
29201;DHT22;16244;51.956;12.980;2022-08-26T05:25:49;19.40;99.90
29201;DHT22;16244;51.956;12.980;2022-08-26T05:28:18;19.50;99.90
29201;DHT22;16244;51.956;12.980;2022-08-26T05:30:47;19.60;99.90
29201;DHT22;16244;51.956;12.980;2022-08-26T05:33:16;19.70;99.90
29201;DHT22;16244;51.956;12.980;2022-08-26T05:35:45;19.80;99.90
29201;DHT22;16244;51.956;12.980;2022-08-26T05:38:14;19.90;99.90
29201;DHT22;16244;51.956;12.980;2022-08-26T05:40:44;20.00;99.90
29201;DHT22;16244;51.956;12.980;2022-08-26T05:43:12;20.10;99.90
29201;DHT22;16244;51.956;12.980;2022-08-26T05:45:41;20.10;99.90
29201;DHT22;16244;51.956;12.980;2022-08-26T05:48:08;20.30;99.90
29201;DHT22;16244;51.956;12.980;2022-08-26T05:50:38;20.40;99.90
29201;DHT22;16244;51.956;12.980;2022-08-26T05:53:06;20.50;99.90
29201;DHT22;16244;51.956;12.980;2022-08-26T05:55:34;20.60;99.90
29201;DHT22;16244;51.956;12.980;2022-08-26T05:58:01;20.70;99.90
29201;DHT22;16244;51.956;12.980;2022-08-26T06:00:28;20.70;99.90
29201;DHT22;16244;51.956;12.980;2022-08-26T06:02:56;20.70;99.90
29201;DHT22;16244;51.956;12.980;2022-08-26T06:05:23;20.80;99.90
29201;DHT22;16244;51.956;12.980;2022-08-26T06:07:53;20.90;99.90
29201;DHT22;16244;51.956;12.980;2022-08-26T06:10:44;21.00;99.90
29201;DHT22;16244;51.956;12.980;2022-08-26T06:13:13;21.10;99.90
29201;DHT22;16244;51.956;12.980;2022-08-26T06:15:42;21.20;99.90
29201;DHT22;16244;51.956;12.980;2022-08-26T06:18:11;21.30;99.90
29201;DHT22;16244;51.956;12.980;2022-08-26T06:20:39;21.40;99.90
29201;DHT22;16244;51.956;12.980;2022-08-26T06:23:11;21.50;99.90
29201;DHT22;16244;51.956;12.980;2022-08-26T06:25:56;21.70;99.90
29201;DHT22;16244;51.956;12.980;2022-08-26T06:28:24;21.80;99.90
29201;DHT22;16244;51.956;12.980;2022-08-26T06:30:52;21.90;99.90
29201;DHT22;16244;51.956;12.980;2022-08-26T06:33:21;21.90;99.90
29201;DHT22;16244;51.956;12.980;2022-08-26T06:35:48;22.10;99.90
29201;DHT22;16244;51.956;12.980;2022-08-26T06:38:19;22.20;99.90
29201;DHT22;16244;51.956;12.980;2022-08-26T06:40:48;22.40;99.90
29201;DHT22;16244;51.956;12.980;2022-08-26T06:43:17;22.50;99.90
29201;DHT22;16244;51.956;12.980;2022-08-26T06:45:45;22.60;99.90
29201;DHT22;16244;51.956;12.980;2022-08-26T06:48:12;22.80;99.90
29201;DHT22;16244;51.956;12.980;2022-08-26T06:50:40;22.90;99.90
29201;DHT22;16244;51.956;12.980;2022-08-26T06:53:09;23.10;99.90
29201;DHT22;16244;51.956;12.980;2022-08-26T06:55:40;23.30;99.90
29201;DHT22;16244;51.956;12.980;2022-08-26T06:58:08;23.40;99.90
29201;DHT22;16244;51.956;12.980;2022-08-26T07:00:35;23.60;99.90
29201;DHT22;16244;51.956;12.980;2022-08-26T07:03:04;23.80;99.90
29201;DHT22;16244;51.956;12.980;2022-08-26T07:05:32;23.90;99.90
29201;DHT22;16244;51.956;12.980;2022-08-26T07:08:10;24.20;99.90
29201;DHT22;16244;51.956;12.980;2022-08-26T07:11:24;24.40;99.90
29201;DHT22;16244;51.956;12.980;2022-08-26T07:14:17;24.70;99.90
29201;DHT22;16244;51.956;12.980;2022-08-26T07:17:05;24.80;99.90
29201;DHT22;16244;51.956;12.980;2022-08-26T07:20:08;24.90;99.90
29201;DHT22;16244;51.956;12.980;2022-08-26T07:23:05;25.10;99.90
29201;DHT22;16244;51.956;12.980;2022-08-26T07:26:00;25.40;99.90
29201;DHT22;16244;51.956;12.980;2022-08-26T07:29:07;25.50;99.90
29201;DHT22;16244;51.956;12.980;2022-08-26T07:32:06;25.60;99.90
29201;DHT22;16244;51.956;12.980;2022-08-26T07:35:19;25.80;99.90
29201;DHT22;16244;51.956;12.980;2022-08-26T07:38:14;26.00;99.90
29201;DHT22;16244;51.956;12.980;2022-08-26T07:41:27;26.10;99.90
29201;DHT22;16244;51.956;12.980;2022-08-26T07:50:58;26.80;99.90
29201;DHT22;16244;51.956;12.980;2022-08-26T07:54:02;27.00;99.90
29201;DHT22;16244;51.956;12.980;2022-08-26T07:56:45;27.10;99.90
29201;DHT22;16244;51.956;12.980;2022-08-26T07:59:39;27.20;99.90
29201;DHT22;16244;51.956;12.980;2022-08-26T08:02:26;27.40;99.90
29201;DHT22;16244;51.956;12.980;2022-08-26T08:05:12;27.70;99.90
29201;DHT22;16244;51.956;12.980;2022-08-26T08:08:14;27.90;99.90
29201;DHT22;16244;51.956;12.980;2022-08-26T08:11:22;28.10;99.90
29201;DHT22;16244;51.956;12.980;2022-08-26T08:14:21;28.20;99.90
29201;DHT22;16244;51.956;12.980;2022-08-26T08:17:18;28.20;99.90
29201;DHT22;16244;51.956;12.980;2022-08-26T08:20:14;28.20;99.90
29201;DHT22;16244;51.956;12.980;2022-08-26T08:40:46;29.10;99.90
29201;DHT22;16244;51.956;12.980;2022-08-26T08:43:44;29.30;99.90
29201;DHT22;16244;51.956;12.980;2022-08-26T08:46:35;29.70;99.90
29201;DHT22;16244;51.956;12.980;2022-08-26T08:49:53;29.70;99.90
29201;DHT22;16244;51.956;12.980;2022-08-26T08:52:36;29.80;99.90
29201;DHT22;16244;51.956;12.980;2022-08-26T09:02:19;30.00;99.90
29201;DHT22;16244;51.956;12.980;2022-08-26T09:05:50;30.40;99.90
29201;DHT22;16244;51.956;12.980;2022-08-26T09:08:34;30.90;99.90
29201;DHT22;16244;51.956;12.980;2022-08-26T09:11:36;31.00;99.90
29201;DHT22;16244;51.956;12.980;2022-08-26T09:14:32;31.10;99.90
29201;DHT22;16244;51.956;12.980;2022-08-26T09:17:45;30.90;99.90
29201;DHT22;16244;51.956;12.980;2022-08-26T09:20:55;30.70;99.90
29201;DHT22;16244;51.956;12.980;2022-08-26T09:24:10;30.60;99.90
29201;DHT22;16244;51.956;12.980;2022-08-26T09:27:06;30.30;99.90
29201;DHT22;16244;51.956;12.980;2022-08-26T09:29:49;29.90;99.90
29201;DHT22;16244;51.956;12.980;2022-08-26T09:42:35;29.30;99.90
29201;DHT22;16244;51.956;12.980;2022-08-26T09:45:05;29.70;99.90
29201;DHT22;16244;51.956;12.980;2022-08-26T09:47:37;29.60;99.90
29201;DHT22;16244;51.956;12.980;2022-08-26T09:50:11;29.20;99.90
29201;DHT22;16244;51.956;12.980;2022-08-26T09:52:44;28.70;99.90
29201;DHT22;16244;51.956;12.980;2022-08-26T09:55:18;28.60;99.90
29201;DHT22;16244;51.956;12.980;2022-08-26T09:57:49;28.40;99.90
29201;DHT22;16244;51.956;12.980;2022-08-26T10:00:26;28.20;99.90
29201;DHT22;16244;51.956;12.980;2022-08-26T10:02:54;27.90;99.90
29201;DHT22;16244;51.956;12.980;2022-08-26T10:05:29;27.80;99.90
29201;DHT22;16244;51.956;12.980;2022-08-26T10:07:57;27.70;99.90
29201;DHT22;16244;51.956;12.980;2022-08-26T10:10:29;27.60;99.90
29201;DHT22;16244;51.956;12.980;2022-08-26T10:13:03;27.50;99.90
29201;DHT22;16244;51.956;12.980;2022-08-26T10:15:49;27.50;99.90
29201;DHT22;16244;51.956;12.980;2022-08-26T10:18:21;27.30;99.90
29201;DHT22;16244;51.956;12.980;2022-08-26T10:20:55;27.10;99.90
29201;DHT22;16244;51.956;12.980;2022-08-26T10:23:25;26.80;99.90
29201;DHT22;16244;51.956;12.980;2022-08-26T10:25:57;26.40;99.90
29201;DHT22;16244;51.956;12.980;2022-08-26T10:28:34;26.20;99.90
29201;DHT22;16244;51.956;12.980;2022-08-26T10:31:19;26.10;99.90
29201;DHT22;16244;51.956;12.980;2022-08-26T10:33:48;25.60;99.90
29201;DHT22;16244;51.956;12.980;2022-08-26T10:36:18;25.40;99.90
29201;DHT22;16244;51.956;12.980;2022-08-26T10:39:08;25.30;99.90
29201;DHT22;16244;51.956;12.980;2022-08-26T10:41:43;25.30;99.90
29201;DHT22;16244;51.956;12.980;2022-08-26T10:44:14;25.40;99.90
29201;DHT22;16244;51.956;12.980;2022-08-26T10:46:46;25.40;99.90
29201;DHT22;16244;51.956;12.980;2022-08-26T10:49:15;25.50;99.90
29201;DHT22;16244;51.956;12.980;2022-08-26T10:51:51;25.60;99.90
29201;DHT22;16244;51.956;12.980;2022-08-26T10:54:25;25.60;99.90
29201;DHT22;16244;51.956;12.980;2022-08-26T10:57:00;25.70;99.90
29201;DHT22;16244;51.956;12.980;2022-08-26T10:59:42;25.80;99.90
29201;DHT22;16244;51.956;12.980;2022-08-26T11:02:13;25.90;99.90
29201;DHT22;16244;51.956;12.980;2022-08-26T11:04:46;26.00;99.90
29201;DHT22;16244;51.956;12.980;2022-08-26T11:07:29;26.00;99.90
29201;DHT22;16244;51.956;12.980;2022-08-26T11:09:56;25.80;99.90
29201;DHT22;16244;51.956;12.980;2022-08-26T11:12:47;25.80;99.90
29201;DHT22;16244;51.956;12.980;2022-08-26T11:18:39;25.40;99.90
29201;DHT22;16244;51.956;12.980;2022-08-26T11:21:48;25.20;99.90
29201;DHT22;16244;51.956;12.980;2022-08-26T11:24:38;25.10;99.90
29201;DHT22;16244;51.956;12.980;2022-08-26T11:27:07;25.10;99.90
29201;DHT22;16244;51.956;12.980;2022-08-26T11:29:58;24.80;99.90
29201;DHT22;16244;51.956;12.980;2022-08-26T11:32:44;24.70;99.90
29201;DHT22;16244;51.956;12.980;2022-08-26T11:35:49;24.50;99.90
29201;DHT22;16244;51.956;12.980;2022-08-26T11:38:20;24.40;99.90
29201;DHT22;16244;51.956;12.980;2022-08-26T11:40:58;24.20;99.90
29201;DHT22;16244;51.956;12.980;2022-08-26T11:43:30;24.10;99.90
29201;DHT22;16244;51.956;12.980;2022-08-26T11:46:03;24.00;99.90
29201;DHT22;16244;51.956;12.980;2022-08-26T11:48:33;23.90;99.90
29201;DHT22;16244;51.956;12.980;2022-08-26T11:51:03;23.90;99.90
29201;DHT22;16244;51.956;12.980;2022-08-26T11:53:32;23.80;99.90
29201;DHT22;16244;51.956;12.980;2022-08-26T11:56:03;23.70;99.90
29201;DHT22;16244;51.956;12.980;2022-08-26T11:58:31;23.70;99.90
29201;DHT22;16244;51.956;12.980;2022-08-26T12:01:03;23.60;99.90
29201;DHT22;16244;51.956;12.980;2022-08-26T12:03:38;23.60;99.90
29201;DHT22;16244;51.956;12.980;2022-08-26T12:06:21;23.60;99.90
29201;DHT22;16244;51.956;12.980;2022-08-26T12:08:51;23.50;99.90
29201;DHT22;16244;51.956;12.980;2022-08-26T12:11:22;23.40;99.90
29201;DHT22;16244;51.956;12.980;2022-08-26T12:13:54;23.30;99.90
29201;DHT22;16244;51.956;12.980;2022-08-26T12:16:24;23.20;99.90
29201;DHT22;16244;51.956;12.980;2022-08-26T12:18:51;23.10;99.90
29201;DHT22;16244;51.956;12.980;2022-08-26T12:21:23;23.00;99.90
29201;DHT22;16244;51.956;12.980;2022-08-26T12:23:53;23.00;99.90
29201;DHT22;16244;51.956;12.980;2022-08-26T12:26:24;22.90;99.90
29201;DHT22;16244;51.956;12.980;2022-08-26T12:28:55;22.90;99.90
29201;DHT22;16244;51.956;12.980;2022-08-26T12:31:27;22.80;99.90
29201;DHT22;16244;51.956;12.980;2022-08-26T12:33:55;22.70;99.90
29201;DHT22;16244;51.956;12.980;2022-08-26T12:36:28;22.50;99.90
29201;DHT22;16244;51.956;12.980;2022-08-26T12:39:04;22.40;99.90
29201;DHT22;16244;51.956;12.980;2022-08-26T12:41:42;22.40;99.90
29201;DHT22;16244;51.956;12.980;2022-08-26T12:44:40;22.40;99.90
29201;DHT22;16244;51.956;12.980;2022-08-26T12:47:10;22.40;99.90
29201;DHT22;16244;51.956;12.980;2022-08-26T12:49:39;22.30;99.90
29201;DHT22;16244;51.956;12.980;2022-08-26T12:52:19;22.30;99.90
29201;DHT22;16244;51.956;12.980;2022-08-26T12:54:55;22.30;99.90
29201;DHT22;16244;51.956;12.980;2022-08-26T12:57:30;22.30;99.90
29201;DHT22;16244;51.956;12.980;2022-08-26T13:00:23;22.30;99.90
29201;DHT22;16244;51.956;12.980;2022-08-26T13:02:51;22.20;99.90
29201;DHT22;16244;51.956;12.980;2022-08-26T13:05:19;22.20;99.90
29201;DHT22;16244;51.956;12.980;2022-08-26T13:08:10;22.10;99.90
29201;DHT22;16244;51.956;12.980;2022-08-26T13:10:39;22.00;99.90
29201;DHT22;16244;51.956;12.980;2022-08-26T13:13:07;22.00;99.90
29201;DHT22;16244;51.956;12.980;2022-08-26T13:15:34;21.80;99.90
29201;DHT22;16244;51.956;12.980;2022-08-26T13:18:01;21.70;99.90
29201;DHT22;16244;51.956;12.980;2022-08-26T13:20:29;21.70;99.90
29201;DHT22;16244;51.956;12.980;2022-08-26T13:22:57;21.50;99.90
29201;DHT22;16244;51.956;12.980;2022-08-26T13:25:26;21.50;99.90
29201;DHT22;16244;51.956;12.980;2022-08-26T13:27:53;21.40;99.90
29201;DHT22;16244;51.956;12.980;2022-08-26T13:30:20;21.40;99.90
29201;DHT22;16244;51.956;12.980;2022-08-26T13:32:57;21.40;99.90
29201;DHT22;16244;51.956;12.980;2022-08-26T13:35:26;21.30;99.90
29201;DHT22;16244;51.956;12.980;2022-08-26T13:37:53;21.20;99.90
29201;DHT22;16244;51.956;12.980;2022-08-26T13:40:20;21.10;99.90
29201;DHT22;16244;51.956;12.980;2022-08-26T13:42:49;21.10;99.90
29201;DHT22;16244;51.956;12.980;2022-08-26T13:45:16;21.00;99.90
29201;DHT22;16244;51.956;12.980;2022-08-26T13:47:43;21.00;99.90
29201;DHT22;16244;51.956;12.980;2022-08-26T13:50:10;21.00;99.90
29201;DHT22;16244;51.956;12.980;2022-08-26T13:52:38;20.90;99.90
29201;DHT22;16244;51.956;12.980;2022-08-26T13:55:06;20.90;99.90
29201;DHT22;16244;51.956;12.980;2022-08-26T13:57:33;20.90;99.90
29201;DHT22;16244;51.956;12.980;2022-08-26T14:00:02;20.90;99.90
29201;DHT22;16244;51.956;12.980;2022-08-26T14:02:29;21.00;99.90
29201;DHT22;16244;51.956;12.980;2022-08-26T14:04:56;21.00;99.90
29201;DHT22;16244;51.956;12.980;2022-08-26T14:07:24;21.00;99.90
29201;DHT22;16244;51.956;12.980;2022-08-26T14:09:51;21.00;99.90
29201;DHT22;16244;51.956;12.980;2022-08-26T14:12:18;21.00;99.90
29201;DHT22;16244;51.956;12.980;2022-08-26T14:14:45;21.00;99.90
29201;DHT22;16244;51.956;12.980;2022-08-26T14:17:17;21.00;99.90
29201;DHT22;16244;51.956;12.980;2022-08-26T14:19:46;21.00;99.90
29201;DHT22;16244;51.956;12.980;2022-08-26T14:22:14;21.10;99.90
29201;DHT22;16244;51.956;12.980;2022-08-26T14:24:42;21.10;99.90
29201;DHT22;16244;51.956;12.980;2022-08-26T14:27:10;21.20;99.90
29201;DHT22;16244;51.956;12.980;2022-08-26T14:29:37;21.20;99.90
29201;DHT22;16244;51.956;12.980;2022-08-26T14:32:09;21.20;99.90
29201;DHT22;16244;51.956;12.980;2022-08-26T14:34:40;21.10;99.90
29201;DHT22;16244;51.956;12.980;2022-08-26T14:37:07;21.20;99.90
29201;DHT22;16244;51.956;12.980;2022-08-26T14:39:35;21.20;99.90
29201;DHT22;16244;51.956;12.980;2022-08-26T14:42:03;21.20;99.90
29201;DHT22;16244;51.956;12.980;2022-08-26T14:44:31;21.10;99.90
29201;DHT22;16244;51.956;12.980;2022-08-26T14:47:00;21.10;99.90
29201;DHT22;16244;51.956;12.980;2022-08-26T14:49:28;21.10;99.90
29201;DHT22;16244;51.956;12.980;2022-08-26T14:51:57;21.10;99.90
29201;DHT22;16244;51.956;12.980;2022-08-26T14:54:24;21.20;99.90
29201;DHT22;16244;51.956;12.980;2022-08-26T14:56:52;21.30;99.90
29201;DHT22;16244;51.956;12.980;2022-08-26T14:59:22;21.30;99.90
29201;DHT22;16244;51.956;12.980;2022-08-26T15:01:50;21.30;99.90
29201;DHT22;16244;51.956;12.980;2022-08-26T15:04:18;21.30;99.90
29201;DHT22;16244;51.956;12.980;2022-08-26T15:06:45;21.30;99.90
29201;DHT22;16244;51.956;12.980;2022-08-26T15:09:14;21.30;99.90
29201;DHT22;16244;51.956;12.980;2022-08-26T15:11:41;21.30;99.90
29201;DHT22;16244;51.956;12.980;2022-08-26T15:14:09;21.40;99.90
29201;DHT22;16244;51.956;12.980;2022-08-26T15:16:37;21.40;99.90
29201;DHT22;16244;51.956;12.980;2022-08-26T15:19:04;21.50;99.90
29201;DHT22;16244;51.956;12.980;2022-08-26T15:21:32;21.50;99.90
29201;DHT22;16244;51.956;12.980;2022-08-26T15:24:00;21.70;99.90
29201;DHT22;16244;51.956;12.980;2022-08-26T15:26:30;21.70;99.90
29201;DHT22;16244;51.956;12.980;2022-08-26T15:28:58;21.80;99.90
29201;DHT22;16244;51.956;12.980;2022-08-26T15:31:27;21.80;99.90
29201;DHT22;16244;51.956;12.980;2022-08-26T15:33:56;21.90;99.90
29201;DHT22;16244;51.956;12.980;2022-08-26T15:36:24;21.90;99.90
29201;DHT22;16244;51.956;12.980;2022-08-26T15:38:52;21.90;99.90
29201;DHT22;16244;51.956;12.980;2022-08-26T15:41:20;22.10;99.90
29201;DHT22;16244;51.956;12.980;2022-08-26T15:43:48;22.10;99.90
29201;DHT22;16244;51.956;12.980;2022-08-26T15:46:16;22.10;99.90
29201;DHT22;16244;51.956;12.980;2022-08-26T15:48:43;22.20;99.90
29201;DHT22;16244;51.956;12.980;2022-08-26T15:51:19;22.30;99.90
29201;DHT22;16244;51.956;12.980;2022-08-26T15:53:47;22.40;99.90
29201;DHT22;16244;51.956;12.980;2022-08-26T15:56:15;22.40;99.90
29201;DHT22;16244;51.956;12.980;2022-08-26T15:58:42;22.40;99.90
29201;DHT22;16244;51.956;12.980;2022-08-26T16:01:11;22.40;99.90
29201;DHT22;16244;51.956;12.980;2022-08-26T16:03:38;22.50;99.90
29201;DHT22;16244;51.956;12.980;2022-08-26T16:06:05;22.40;99.90
29201;DHT22;16244;51.956;12.980;2022-08-26T16:08:33;22.50;99.90
29201;DHT22;16244;51.956;12.980;2022-08-26T16:11:01;22.50;99.90
29201;DHT22;16244;51.956;12.980;2022-08-26T16:13:29;22.40;99.90
29201;DHT22;16244;51.956;12.980;2022-08-26T16:15:58;22.40;99.90
29201;DHT22;16244;51.956;12.980;2022-08-26T16:18:26;22.30;99.90
29201;DHT22;16244;51.956;12.980;2022-08-26T16:20:55;22.30;99.90
29201;DHT22;16244;51.956;12.980;2022-08-26T16:23:23;22.30;99.90
29201;DHT22;16244;51.956;12.980;2022-08-26T16:25:51;22.30;99.90
29201;DHT22;16244;51.956;12.980;2022-08-26T16:28:18;22.30;99.90
29201;DHT22;16244;51.956;12.980;2022-08-26T16:30:46;22.40;99.90
29201;DHT22;16244;51.956;12.980;2022-08-26T16:33:14;22.40;99.90
29201;DHT22;16244;51.956;12.980;2022-08-26T16:35:43;22.30;99.90